Conway, Washington
Current Conditions -  °F | °C
As of 2:35 AM on Monday 26 Jan 2015 (Local Time) from KBVS Reporting Station
Overcast Overcast  
Wind Chill: 42°   Ceiling: 100
Heat Index: 45°   Visibility: 0mi
Dew Point: 45°   Wind: 5mph
Humidity: 100%   Direction: 300°WNW
Pressure: 29.95"   Gusts: NA
Location:  48.34°N, 122.35°W
Report Text: KBVS 261035Z AUTO 30004KT M1/4SM OVC001 07/07 A2995 RMK A01 P000
Loading
Personal Weather Stations






























Interactive Weather Map New forecast layout! Learn more

10-Day Weather Forecast

Advertisements
Track Severe Weather on mobile